createdAt,value
2019-03-13T00:00:36.333Z,75.80
2019-03-13T00:03:05.907Z,75.70
2019-03-13T00:05:35.164Z,75.70
2019-03-13T00:08:04.550Z,75.50
2019-03-13T00:10:33.883Z,75.40
2019-03-13T00:13:03.394Z,75.40
2019-03-13T00:15:32.656Z,75.20
2019-03-13T00:18:01.945Z,75.10
2019-03-13T00:20:31.225Z,74.90
2019-03-13T00:23:00.593Z,74.80
2019-03-13T00:25:29.960Z,75.50
2019-03-13T00:27:59.280Z,74.70
2019-03-13T00:30:28.557Z,74.50
2019-03-13T00:32:57.862Z,74.50
2019-03-13T00:35:27.153Z,74.40
2019-03-13T00:37:56.501Z,74.30
2019-03-13T00:40:25.813Z,74.30
2019-03-13T00:42:55.080Z,74.10
2019-03-13T00:45:24.468Z,74.00
2019-03-13T00:47:53.740Z,74.00
2019-03-13T00:50:30.122Z,73.90
2019-03-13T00:52:59.435Z,73.90
2019-03-13T00:55:28.733Z,73.90
2019-03-13T00:57:58.028Z,73.70
2019-03-13T01:00:45.440Z,73.70
2019-03-13T01:03:43.072Z,73.60
2019-03-13T01:06:16.865Z,73.60
2019-03-13T01:08:46.296Z,73.40
2019-03-13T01:11:15.652Z,73.40
2019-03-13T01:13:44.916Z,73.40
2019-03-13T01:16:14.280Z,73.30
2019-03-13T01:18:43.552Z,73.30
2019-03-13T01:21:12.868Z,73.20
2019-03-13T01:23:42.165Z,73.20
2019-03-13T01:26:11.548Z,73.10
2019-03-13T01:28:40.805Z,73.10
2019-03-13T01:31:19.243Z,73.00
2019-03-13T01:33:48.936Z,72.90
2019-03-13T01:36:18.835Z,72.90
2019-03-13T01:38:48.168Z,73.00
2019-03-13T01:41:17.551Z,72.90
2019-03-13T01:43:46.851Z,72.80
2019-03-13T01:46:16.080Z,72.80
2019-03-13T01:48:45.504Z,72.70
2019-03-13T01:51:14.754Z,72.70
2019-03-13T01:53:44.047Z,72.60
2019-03-13T01:56:13.358Z,72.60
2019-03-13T01:58:42.657Z,72.60
2019-03-13T02:01:12.077Z,72.60
2019-03-13T02:03:41.364Z,72.50
2019-03-13T02:06:10.709Z,72.50
2019-03-13T02:08:40.091Z,72.40
2019-03-13T02:11:09.423Z,72.50
2019-03-13T02:13:38.705Z,72.50
2019-03-13T02:16:08.127Z,72.40
2019-03-13T02:18:37.522Z,72.40
2019-03-13T02:21:06.771Z,72.40
2019-03-13T02:23:36.131Z,72.30
2019-03-13T02:26:05.415Z,72.30
2019-03-13T02:28:34.739Z,72.20
2019-03-13T02:31:04.438Z,72.20
2019-03-13T02:33:33.755Z,72.20
2019-03-13T02:36:03.314Z,72.20
2019-03-13T02:38:32.643Z,72.20
2019-03-13T02:41:01.919Z,72.20
2019-03-13T02:43:31.159Z,72.20
2019-03-13T02:46:00.516Z,72.20
2019-03-13T02:48:29.830Z,72.10
2019-03-13T02:50:59.076Z,72.20
2019-03-13T02:53:28.358Z,72.10
2019-03-13T02:55:57.624Z,72.00
2019-03-13T02:58:26.890Z,71.90
2019-03-13T03:01:24.481Z,71.80
2019-03-13T03:03:55.678Z,71.80
2019-03-13T03:06:24.960Z,71.80
2019-03-13T03:08:54.211Z,71.80
2019-03-13T03:11:23.539Z,71.50
2019-03-13T03:13:52.853Z,71.40
2019-03-13T03:16:22.126Z,71.30
2019-03-13T03:18:51.419Z,71.20
2019-03-13T03:21:20.743Z,71.10
2019-03-13T03:23:50.027Z,71.00
2019-03-13T03:26:19.326Z,70.90
2019-03-13T03:28:48.601Z,70.80
2019-03-13T03:31:17.965Z,70.70
2019-03-13T03:33:59.687Z,70.50
2019-03-13T03:36:29.411Z,70.40
2019-03-13T03:38:58.819Z,70.40
2019-03-13T03:41:28.508Z,70.30
2019-03-13T03:43:57.958Z,70.20
2019-03-13T03:46:27.249Z,70.10
2019-03-13T03:48:56.566Z,70.00
2019-03-13T03:51:25.955Z,69.90
2019-03-13T03:53:55.198Z,69.90
2019-03-13T03:56:24.462Z,69.90
2019-03-13T03:58:53.858Z,69.80
2019-03-13T04:01:23.202Z,69.60
2019-03-13T04:03:52.470Z,69.60
2019-03-13T04:06:21.846Z,69.60
2019-03-13T04:08:51.142Z,69.40
2019-03-13T04:11:20.450Z,69.40
2019-03-13T04:13:49.846Z,69.40
2019-03-13T04:16:19.140Z,69.40
2019-03-13T04:18:48.382Z,69.30
2019-03-13T04:21:17.667Z,69.30
2019-03-13T04:23:46.911Z,69.30
2019-03-13T04:26:16.252Z,69.30
2019-03-13T04:28:45.514Z,69.30
2019-03-13T04:31:14.885Z,69.30
2019-03-13T04:33:44.188Z,69.20
2019-03-13T04:36:13.461Z,69.20
2019-03-13T04:38:42.805Z,69.10
2019-03-13T04:41:12.187Z,69.10
2019-03-13T04:43:41.489Z,69.10
2019-03-13T04:46:10.822Z,69.10
2019-03-13T04:48:40.093Z,69.10
2019-03-13T04:51:09.448Z,69.10
2019-03-13T04:53:38.766Z,69.10
2019-03-13T04:56:08.057Z,69.00
2019-03-13T04:58:37.413Z,68.90
2019-03-13T05:01:06.685Z,68.90
2019-03-13T05:03:36.086Z,68.80
2019-03-13T05:06:24.164Z,68.80
2019-03-13T05:09:06.348Z,68.80
2019-03-13T05:11:35.645Z,68.90
2019-03-13T05:14:05.108Z,68.90
2019-03-13T05:16:34.380Z,68.80
2019-03-13T05:19:03.673Z,68.70
2019-03-13T05:21:33.031Z,68.80
2019-03-13T05:24:02.336Z,68.70
2019-03-13T05:26:31.694Z,68.70
2019-03-13T05:29:00.964Z,68.70
2019-03-13T05:31:30.336Z,68.50
2019-03-13T05:33:59.629Z,68.40
2019-03-13T05:36:28.881Z,68.20
2019-03-13T05:38:58.516Z,68.00
2019-03-13T05:41:27.779Z,68.00
2019-03-13T05:43:57.124Z,67.90
2019-03-13T05:46:26.423Z,67.80
2019-03-13T05:48:55.711Z,67.80
2019-03-13T05:51:25.055Z,67.70
2019-03-13T05:53:54.535Z,67.50
2019-03-13T05:56:23.895Z,67.40
2019-03-13T05:58:53.195Z,67.20
2019-03-13T06:01:22.527Z,67.20
2019-03-13T06:03:51.851Z,67.10
2019-03-13T06:06:21.111Z,67.00
2019-03-13T06:08:50.408Z,66.90
2019-03-13T06:11:19.687Z,66.90
2019-03-13T06:13:49.028Z,66.80
2019-03-13T06:16:18.310Z,66.90
2019-03-13T06:18:47.571Z,66.80
2019-03-13T06:21:16.871Z,66.80
2019-03-13T06:23:47.973Z,66.90
2019-03-13T06:26:17.059Z,67.00
2019-03-13T06:28:46.483Z,67.30
2019-03-13T06:31:15.788Z,67.80
2019-03-13T06:33:45.078Z,68.20
2019-03-13T06:36:14.436Z,68.80
2019-03-13T06:38:43.707Z,69.10
2019-03-13T06:41:13.003Z,69.70
2019-03-13T06:43:42.335Z,70.50
2019-03-13T06:46:11.711Z,71.30
2019-03-13T06:48:41.015Z,71.90
2019-03-13T06:51:10.307Z,72.70
2019-03-13T06:53:39.571Z,73.50
2019-03-13T06:56:08.866Z,74.30
2019-03-13T06:58:44.850Z,75.10
2019-03-13T07:01:48.478Z,75.90
2019-03-13T07:04:30.850Z,76.80
2019-03-13T07:07:24.762Z,77.50
2019-03-13T07:10:04.863Z,78.50
2019-03-13T07:12:46.535Z,79.00
2019-03-13T07:15:35.810Z,79.80
2019-03-13T07:18:23.530Z,80.60
2019-03-13T07:21:01.921Z,81.10
2019-03-13T07:23:46.538Z,81.70
2019-03-13T07:26:32.246Z,82.20
2019-03-13T07:29:13.990Z,82.90
2019-03-13T07:32:08.282Z,83.30
2019-03-13T07:34:59.190Z,83.70
2019-03-13T07:37:35.486Z,84.10
2019-03-13T07:40:20.762Z,84.50
2019-03-13T07:43:09.106Z,84.90
2019-03-13T07:45:56.174Z,85.40
2019-03-13T07:48:43.340Z,85.60
2019-03-13T07:51:22.412Z,85.70
2019-03-13T07:54:13.338Z,85.90
2019-03-13T07:57:02.100Z,86.30
2019-03-13T07:59:59.345Z,86.60
2019-03-13T08:02:46.209Z,86.70
2019-03-13T08:05:37.153Z,86.90
2019-03-13T08:08:40.405Z,87.00
2019-03-13T08:11:31.474Z,87.20
2019-03-13T08:14:22.057Z,87.30
2019-03-13T08:17:09.309Z,87.40
2019-03-13T08:19:57.617Z,87.50
2019-03-13T08:22:35.441Z,87.60
2019-03-13T08:25:32.681Z,87.80
2019-03-13T08:28:12.217Z,88.00
2019-03-13T08:31:01.377Z,88.30
2019-03-13T08:33:52.342Z,88.40
2019-03-13T08:36:49.697Z,88.60
2019-03-13T08:39:40.797Z,88.70
2019-03-13T08:42:25.237Z,88.80
2019-03-13T08:45:25.693Z,88.90
2019-03-13T08:48:05.397Z,89.00
2019-03-13T08:51:01.134Z,89.20
2019-03-13T08:53:48.592Z,89.50
2019-03-13T08:56:36.960Z,89.40
2019-03-13T08:59:23.636Z,89.50
2019-03-13T09:02:06.426Z,89.60
2019-03-13T09:04:57.684Z,89.70
2019-03-13T09:07:55.220Z,89.70
2019-03-13T09:10:41.965Z,89.60
2019-03-13T09:13:26.832Z,89.50
2019-03-13T09:16:05.921Z,89.40
2019-03-13T09:19:06.420Z,89.40
2019-03-13T09:21:57.764Z,89.30
2019-03-13T09:24:36.820Z,89.20
2019-03-13T09:27:31.200Z,89.20
2019-03-13T09:30:14.625Z,89.00
2019-03-13T09:33:02.732Z,88.80
2019-03-13T09:35:54.317Z,88.80
2019-03-13T09:38:41.505Z,88.60
2019-03-13T09:41:29.808Z,88.60
2019-03-13T09:44:26.944Z,88.30
2019-03-13T09:47:30.296Z,88.10
2019-03-13T09:50:13.657Z,87.90
2019-03-13T09:53:00.797Z,87.40
2019-03-13T09:55:43.061Z,86.60
2019-03-13T09:58:33.585Z,86.20
2019-03-13T10:01:18.115Z,85.70
2019-03-13T10:04:02.055Z,85.40
2019-03-13T10:06:37.581Z,84.90
2019-03-13T10:09:30.544Z,84.40
2019-03-13T10:12:06.767Z,84.00
2019-03-13T10:15:13.267Z,83.50
2019-03-13T10:18:10.912Z,83.10
2019-03-13T10:21:01.968Z,82.70
2019-03-13T10:23:53.404Z,83.10
2019-03-13T10:26:40.604Z,82.00
2019-03-13T10:29:24.904Z,81.40
2019-03-13T10:32:22.084Z,80.80
2019-03-13T10:35:03.016Z,80.10
2019-03-13T10:38:12.891Z,79.70
2019-03-13T10:40:52.941Z,79.20
2019-03-13T10:43:39.848Z,78.30
2019-03-13T10:46:25.388Z,77.70
2019-03-13T10:49:12.580Z,77.20
2019-03-13T10:51:53.107Z,76.30
2019-03-13T10:54:29.595Z,75.30
2019-03-13T10:57:08.567Z,73.60
2019-03-13T10:59:43.931Z,72.00
2019-03-13T11:02:35.105Z,69.50
2019-03-13T11:05:22.096Z,67.60
2019-03-13T11:08:08.871Z,66.20
2019-03-13T11:10:57.179Z,64.70
2019-03-13T11:13:51.399Z,63.60
2019-03-13T11:16:39.685Z,62.80
2019-03-13T11:19:13.919Z,62.20
2019-03-13T11:22:02.239Z,61.40
2019-03-13T11:24:42.527Z,61.50
2019-03-13T11:27:19.364Z,59.90
2019-03-13T11:30:25.896Z,59.00
2019-03-13T11:33:13.048Z,58.20
2019-03-13T11:36:13.437Z,57.70
2019-03-13T11:38:50.579Z,56.80
2019-03-13T11:41:45.971Z,56.30
2019-03-13T11:44:26.111Z,56.70
2019-03-13T11:47:12.503Z,56.60
2019-03-13T11:49:58.435Z,57.30
2019-03-13T11:52:46.727Z,57.50
2019-03-13T11:55:35.051Z,57.70
2019-03-13T11:58:18.178Z,57.70
2019-03-13T12:01:12.710Z,57.50
2019-03-13T12:04:04.138Z,57.10
2019-03-13T12:06:42.573Z,57.50
2019-03-13T12:09:27.710Z,57.70
2019-03-13T12:12:14.958Z,57.50
2019-03-13T12:15:05.634Z,57.70
2019-03-13T12:17:59.786Z,57.60
2019-03-13T12:20:47.376Z,57.30
2019-03-13T12:23:45.399Z,57.20
2019-03-13T12:26:36.296Z,57.00
2019-03-13T12:29:18.021Z,57.00
2019-03-13T12:32:06.330Z,57.00
2019-03-13T12:35:00.407Z,57.00
2019-03-13T12:37:54.850Z,57.10
2019-03-13T12:40:41.765Z,57.50
2019-03-13T12:43:33.029Z,57.50
2019-03-13T12:46:21.377Z,57.40
2019-03-13T12:49:18.566Z,57.40
2019-03-13T12:52:15.918Z,57.50
2019-03-13T12:54:56.489Z,57.80
2019-03-13T12:57:48.001Z,58.00
2019-03-13T13:00:31.993Z,58.20
2019-03-13T13:03:35.794Z,58.30
2019-03-13T13:06:15.156Z,58.30
2019-03-13T13:09:04.587Z,58.30
2019-03-13T13:11:55.951Z,58.20
2019-03-13T13:14:56.637Z,58.20
2019-03-13T13:17:41.954Z,58.10
2019-03-13T13:20:11.881Z,57.90
2019-03-13T13:22:41.197Z,57.80
2019-03-13T13:25:10.602Z,57.70
2019-03-13T13:27:39.920Z,57.50
2019-03-13T13:30:10.364Z,57.20
2019-03-13T13:32:39.740Z,57.00
2019-03-13T13:35:09.696Z,56.80
2019-03-13T13:37:39.068Z,56.70
2019-03-13T13:40:08.952Z,56.60
2019-03-13T13:42:38.260Z,56.40
2019-03-13T13:45:08.380Z,56.30
2019-03-13T13:47:37.640Z,56.30
2019-03-13T13:50:08.035Z,56.60
2019-03-13T13:52:37.324Z,56.20
2019-03-13T13:55:06.777Z,56.30
2019-03-13T13:57:36.056Z,56.30
2019-03-13T14:00:06.164Z,56.20
2019-03-13T14:02:35.468Z,56.10
2019-03-13T14:05:04.868Z,56.00
2019-03-13T14:07:34.180Z,55.90
2019-03-13T14:10:03.552Z,55.80
2019-03-13T14:12:32.976Z,55.90
2019-03-13T14:15:02.357Z,55.80
2019-03-13T14:17:31.788Z,55.70
2019-03-13T14:20:01.136Z,55.60
2019-03-13T14:22:30.503Z,55.60
2019-03-13T14:24:59.889Z,55.60
2019-03-13T14:27:29.227Z,56.30
2019-03-13T14:29:58.567Z,55.60
2019-03-13T14:32:27.868Z,55.60
2019-03-13T14:34:57.231Z,55.30
2019-03-13T14:37:26.523Z,54.90
2019-03-13T14:39:55.883Z,54.60
2019-03-13T14:42:25.223Z,54.60
2019-03-13T14:44:54.495Z,54.70
2019-03-13T14:47:24.707Z,55.00
2019-03-13T14:49:53.976Z,55.20
2019-03-13T14:52:23.271Z,55.40
2019-03-13T14:54:52.543Z,55.60
2019-03-13T14:57:21.835Z,55.80
2019-03-13T14:59:51.187Z,56.00
2019-03-13T15:02:20.534Z,56.10
2019-03-13T15:04:49.799Z,56.20
2019-03-13T15:07:19.199Z,56.50
2019-03-13T15:09:48.474Z,56.50
2019-03-13T15:12:17.938Z,56.50
2019-03-13T15:14:47.178Z,56.60
2019-03-13T15:17:16.490Z,56.60
2019-03-13T15:19:45.738Z,56.60
2019-03-13T15:22:15.054Z,56.70
2019-03-13T15:24:44.346Z,56.80
2019-03-13T15:27:13.610Z,56.80
2019-03-13T15:29:42.990Z,56.60
2019-03-13T15:32:12.270Z,56.60
2019-03-13T15:34:41.712Z,56.50
2019-03-13T15:37:11.054Z,57.10
2019-03-13T15:39:40.438Z,56.30
2019-03-13T15:42:09.703Z,56.10
2019-03-13T15:44:39.089Z,56.00
2019-03-13T15:47:08.446Z,56.00
2019-03-13T15:49:37.832Z,56.00
2019-03-13T15:52:07.234Z,56.00
2019-03-13T15:54:36.518Z,56.70
2019-03-13T15:57:05.845Z,56.20
2019-03-13T15:59:35.194Z,56.40
2019-03-13T16:02:04.509Z,56.30
2019-03-13T16:04:33.897Z,56.40
2019-03-13T16:07:03.257Z,56.40
2019-03-13T16:09:32.553Z,56.40
2019-03-13T16:12:01.849Z,57.20
2019-03-13T16:14:31.161Z,56.50
2019-03-13T16:17:00.564Z,56.50
2019-03-13T16:19:29.862Z,56.50
2019-03-13T16:21:59.193Z,56.60
2019-03-13T16:24:28.593Z,56.60
2019-03-13T16:26:57.997Z,56.90
2019-03-13T16:29:27.388Z,57.00
2019-03-13T16:31:56.862Z,57.60
2019-03-13T16:34:26.277Z,57.10
2019-03-13T16:36:55.726Z,57.30
2019-03-13T16:39:25.050Z,57.30
2019-03-13T16:41:54.365Z,57.50
2019-03-13T16:44:23.684Z,57.70
2019-03-13T16:46:53.064Z,57.80
2019-03-13T16:49:22.736Z,58.00
2019-03-13T16:51:52.008Z,58.20
2019-03-13T16:54:21.379Z,58.30
2019-03-13T16:56:50.749Z,58.30
2019-03-13T16:59:20.178Z,58.50
2019-03-13T17:01:49.572Z,58.50
2019-03-13T17:04:19.195Z,58.60
2019-03-13T17:06:48.554Z,58.60
2019-03-13T17:09:17.900Z,58.70
2019-03-13T17:11:47.164Z,58.80
2019-03-13T17:14:16.444Z,58.80
2019-03-13T17:16:45.835Z,58.80
2019-03-13T17:19:15.160Z,58.80
2019-03-13T17:21:44.554Z,59.00
2019-03-13T17:24:13.861Z,59.00
2019-03-13T17:26:43.136Z,59.00
2019-03-13T17:29:12.521Z,59.00
2019-03-13T17:31:41.808Z,59.00
2019-03-13T17:34:11.194Z,59.00
2019-03-13T17:36:40.580Z,59.10
2019-03-13T17:39:10.080Z,59.10
2019-03-13T17:41:39.455Z,59.10
2019-03-13T17:44:08.765Z,59.10
2019-03-13T17:46:38.076Z,59.10
2019-03-13T17:49:07.360Z,59.00
2019-03-13T17:51:36.680Z,59.00
2019-03-13T17:54:05.949Z,59.00
2019-03-13T17:56:35.255Z,59.00
2019-03-13T17:59:04.632Z,59.00
2019-03-13T18:01:33.980Z,59.00
2019-03-13T18:04:03.348Z,59.20
2019-03-13T18:06:32.655Z,59.10
2019-03-13T18:09:04.137Z,59.30
2019-03-13T18:11:33.163Z,59.30
2019-03-13T18:14:02.479Z,59.30
2019-03-13T18:16:31.739Z,59.40
2019-03-13T18:19:01.085Z,59.40
2019-03-13T18:21:30.388Z,59.50
2019-03-13T18:23:59.691Z,59.60
2019-03-13T18:26:28.996Z,59.60
2019-03-13T18:28:58.279Z,59.60
2019-03-13T18:31:27.643Z,59.70
2019-03-13T18:33:56.983Z,59.80
2019-03-13T18:36:26.283Z,59.90
2019-03-13T18:38:55.607Z,59.90
2019-03-13T18:41:24.947Z,60.00
2019-03-13T18:43:54.335Z,60.00
2019-03-13T18:46:23.679Z,60.10
2019-03-13T18:48:53.011Z,60.30
2019-03-13T18:51:22.408Z,60.40
2019-03-13T18:53:51.655Z,60.40
2019-03-13T18:56:20.963Z,60.40
2019-03-13T18:58:50.280Z,60.50
2019-03-13T19:01:19.588Z,60.60
2019-03-13T19:03:48.894Z,61.40
2019-03-13T19:06:18.191Z,61.50
2019-03-13T19:08:47.471Z,60.70
2019-03-13T19:11:16.718Z,60.80
2019-03-13T19:13:46.098Z,60.80
2019-03-13T19:16:15.367Z,60.80
2019-03-13T19:18:44.703Z,60.90
2019-03-13T19:21:14.003Z,61.00
2019-03-13T19:23:43.314Z,60.90
2019-03-13T19:26:12.651Z,61.00
2019-03-13T19:28:41.957Z,61.10
2019-03-13T19:31:11.230Z,61.30
2019-03-13T19:33:41.843Z,61.30
2019-03-13T19:36:12.469Z,61.40
2019-03-13T19:38:41.770Z,61.60
2019-03-13T19:41:11.137Z,61.70
2019-03-13T19:43:40.507Z,61.70
2019-03-13T19:46:09.798Z,62.00
2019-03-13T19:48:39.078Z,61.90
2019-03-13T19:51:08.380Z,62.00
2019-03-13T19:53:37.704Z,62.10
2019-03-13T19:56:07.210Z,62.20
2019-03-13T19:58:36.486Z,62.20
2019-03-13T20:01:06.853Z,62.30
2019-03-13T20:03:36.163Z,62.40
2019-03-13T20:06:05.498Z,62.40
2019-03-13T20:08:34.812Z,62.40
2019-03-13T20:11:04.204Z,62.40
2019-03-13T20:13:33.574Z,62.40
2019-03-13T20:16:02.859Z,62.40
2019-03-13T20:18:32.178Z,62.40
2019-03-13T20:21:01.537Z,62.40
2019-03-13T20:23:30.782Z,62.30
2019-03-13T20:26:00.075Z,62.20
2019-03-13T20:28:29.340Z,62.20
2019-03-13T20:30:58.634Z,62.20
2019-03-13T20:33:27.914Z,62.10
2019-03-13T20:35:57.254Z,62.10
2019-03-13T20:38:26.674Z,62.10
2019-03-13T20:40:55.886Z,62.00
2019-03-13T20:43:25.544Z,62.00
2019-03-13T20:45:54.894Z,62.00
2019-03-13T20:48:27.494Z,61.90
2019-03-13T20:50:56.812Z,61.90
2019-03-13T20:53:26.167Z,61.90
2019-03-13T20:55:58.577Z,61.80
2019-03-13T20:58:26.438Z,61.80
2019-03-13T21:00:55.816Z,61.70
2019-03-13T21:03:25.127Z,61.60
2019-03-13T21:05:54.422Z,61.50
2019-03-13T21:08:23.691Z,61.40
2019-03-13T21:10:53.033Z,61.30
2019-03-13T21:13:22.290Z,61.20
2019-03-13T21:15:51.594Z,61.10
2019-03-13T21:18:20.944Z,61.00
2019-03-13T21:20:50.341Z,60.70
2019-03-13T21:23:19.610Z,60.50
2019-03-13T21:25:48.912Z,60.30
2019-03-13T21:28:18.307Z,60.10
2019-03-13T21:30:47.946Z,60.80
2019-03-13T21:33:17.240Z,60.00
2019-03-13T21:35:46.572Z,59.90
2019-03-13T21:38:15.869Z,59.80
2019-03-13T21:40:45.204Z,59.70
2019-03-13T21:43:16.335Z,59.70
2019-03-13T21:45:45.467Z,59.70
2019-03-13T21:48:14.732Z,59.70
2019-03-13T21:50:44.003Z,59.60
2019-03-13T21:53:13.287Z,59.60
2019-03-13T21:55:42.923Z,59.60
2019-03-13T21:58:12.287Z,59.50
2019-03-13T22:00:41.771Z,59.60
2019-03-13T22:03:13.320Z,59.60
2019-03-13T22:05:46.255Z,59.60
2019-03-13T22:08:15.990Z,59.60
2019-03-13T22:10:46.155Z,59.60
2019-03-13T22:13:16.347Z,59.70
2019-03-13T22:15:45.686Z,59.70
2019-03-13T22:18:15.001Z,59.80
2019-03-13T22:20:44.291Z,59.80
2019-03-13T22:23:13.571Z,59.80
2019-03-13T22:25:42.823Z,60.00
2019-03-13T22:28:12.186Z,60.00
2019-03-13T22:30:41.511Z,60.10
2019-03-13T22:33:10.799Z,60.10
2019-03-13T22:35:40.134Z,60.20
2019-03-13T22:38:09.446Z,60.20
2019-03-13T22:40:38.819Z,60.20
2019-03-13T22:43:08.083Z,60.40
2019-03-13T22:45:37.451Z,60.30
2019-03-13T22:48:06.731Z,60.40
2019-03-13T22:50:36.026Z,60.40
2019-03-13T22:53:05.394Z,60.40
2019-03-13T22:55:34.685Z,60.50
2019-03-13T22:58:03.982Z,60.50
2019-03-13T23:00:55.962Z,60.60
2019-03-13T23:03:26.626Z,60.60
2019-03-13T23:05:55.870Z,60.60
2019-03-13T23:08:25.233Z,60.60
2019-03-13T23:10:54.642Z,60.70
2019-03-13T23:13:23.937Z,60.60
2019-03-13T23:15:53.188Z,60.60
2019-03-13T23:18:22.473Z,60.60
2019-03-13T23:20:51.889Z,60.00
2019-03-13T23:23:21.244Z,61.20
2019-03-13T23:25:50.561Z,62.40
2019-03-13T23:28:19.821Z,64.00
2019-03-13T23:30:49.120Z,65.40
2019-03-13T23:33:18.821Z,66.40
2019-03-13T23:35:48.085Z,67.10
2019-03-13T23:38:17.386Z,67.30
2019-03-13T23:40:46.644Z,68.30
2019-03-13T23:43:15.897Z,67.60
2019-03-13T23:45:45.208Z,67.70
2019-03-13T23:48:14.584Z,67.70
2019-03-13T23:50:43.869Z,67.60
2019-03-13T23:53:13.125Z,67.70
2019-03-13T23:55:42.409Z,67.40
2019-03-13T23:58:11.741Z,67.90
